Time;durP1;ratioP1;P1;durP2;ratioP2;P2;SDS_P1;SDS_P2;PMS_P1;PMS_P2;Temp;Humidity;BMP_temperature;BMP_pressure;BME280_temperature;BME280_humidity;BME280_pressure;Samples;Min_cycle;Max_cycle;Signal;HPM_P1;HPM_P2
2022/07/04 00:02:16;;;;;;;15.43;4.90;;;;;;;12.91;100.00;101868.88;5053366;28;20017;-68
2022/07/04 00:04:41;;;;;;;17.17;4.90;;;;;;;12.96;100.00;101868.03;5053452;28;20024;-68
2022/07/04 00:07:07;;;;;;;16.17;5.38;;;;;;;12.98;100.00;101869.84;5053237;28;20061;-67
2022/07/04 00:09:32;;;;;;;14.13;4.85;;;;;;;12.88;100.00;101871.50;5053046;28;20111;-68
2022/07/04 00:11:57;;;;;;;16.58;5.20;;;;;;;12.82;100.00;101867.91;5053655;28;20021;-68
2022/07/04 00:14:22;;;;;;;15.48;5.15;;;;;;;12.86;100.00;101870.59;5053118;28;20386;-68
2022/07/04 00:16:48;;;;;;;15.85;4.88;;;;;;;12.79;100.00;101867.88;5051767;28;20036;-66
2022/07/04 00:19:13;;;;;;;17.23;5.25;;;;;;;12.73;100.00;101863.38;5053158;28;20044;-66
2022/07/04 00:21:38;;;;;;;16.33;5.20;;;;;;;12.64;100.00;101860.59;5052949;28;20032;-68
2022/07/04 00:24:04;;;;;;;14.93;4.80;;;;;;;12.59;100.00;101863.19;5053014;28;20028;-68
2022/07/04 00:26:30;;;;;;;14.45;5.00;;;;;;;12.51;100.00;101863.13;5053093;28;20025;-70
2022/07/04 00:28:55;;;;;;;15.45;5.10;;;;;;;12.41;100.00;101861.22;5053061;28;20037;-67
2022/07/04 00:31:20;;;;;;;14.85;4.93;;;;;;;12.35;100.00;101862.03;5053280;28;20502;-67
2022/07/04 00:33:46;;;;;;;17.25;5.10;;;;;;;12.21;100.00;101866.25;5052720;28;20025;-66
2022/07/04 00:36:11;;;;;;;16.58;5.13;;;;;;;12.16;100.00;101862.66;5053019;28;20033;-67
2022/07/04 00:38:37;;;;;;;16.58;5.05;;;;;;;12.16;100.00;101860.88;5052795;28;20104;-68
2022/07/04 00:41:02;;;;;;;14.95;5.05;;;;;;;12.09;100.00;101859.00;5052652;28;20040;-67
2022/07/04 00:43:28;;;;;;;17.17;5.20;;;;;;;12.16;100.00;101862.66;5052735;28;20021;-63
2022/07/04 00:45:54;;;;;;;15.93;5.30;;;;;;;12.17;100.00;101856.47;5053002;28;20035;-64
2022/07/04 00:48:19;;;;;;;14.50;5.10;;;;;;;12.21;100.00;101859.16;5052883;28;20108;-63
2022/07/04 00:50:46;;;;;;;14.60;5.18;;;;;;;12.13;100.00;101859.94;5052631;28;20025;-63
2022/07/04 00:53:16;;;;;;;15.77;5.32;;;;;;;12.03;100.00;101862.47;5052799;28;20128;-63
2022/07/04 00:55:42;;;;;;;15.98;5.40;;;;;;;11.97;100.00;101861.47;5052438;28;20032;-63
2022/07/04 00:58:08;;;;;;;18.08;5.50;;;;;;;11.94;100.00;101856.13;5052307;28;20052;-63
2022/07/04 01:00:33;;;;;;;15.50;5.32;;;;;;;11.89;100.00;101860.44;5052597;28;20380;-63
2022/07/04 01:02:59;;;;;;;16.10;5.30;;;;;;;11.91;100.00;101858.72;5052416;28;20032;-63
2022/07/04 01:05:25;;;;;;;16.55;5.80;;;;;;;11.80;100.00;101863.84;5052603;28;20057;-63
2022/07/04 01:07:50;;;;;;;17.27;5.75;;;;;;;11.87;100.00;101855.13;5052431;28;20420;-63
2022/07/04 01:10:16;;;;;;;16.48;5.53;;;;;;;11.84;100.00;101848.03;5052335;28;20095;-63
2022/07/04 01:12:41;;;;;;;17.98;6.20;;;;;;;11.80;100.00;101846.19;5052558;28;20029;-63
2022/07/04 01:15:07;;;;;;;18.23;5.95;;;;;;;11.77;100.00;101845.28;5052418;28;20480;-63
2022/07/04 01:17:33;;;;;;;16.92;5.95;;;;;;;11.68;100.00;101851.31;5052458;28;20107;-63
2022/07/04 01:19:59;;;;;;;16.23;5.70;;;;;;;11.72;100.00;101837.22;5052039;28;20456;-63
2022/07/04 01:22:24;;;;;;;18.83;5.57;;;;;;;11.68;100.00;101840.72;5056289;28;20035;-63
2022/07/04 01:24:50;;;;;;;16.77;5.53;;;;;;;11.69;100.00;101832.78;5056333;28;20021;-65
2022/07/04 01:27:16;;;;;;;16.00;5.05;;;;;;;11.67;100.00;101845.09;5056551;28;20025;-65
2022/07/04 01:29:42;;;;;;;18.65;5.82;;;;;;;11.68;100.00;101835.41;5056453;28;20029;-67
2022/07/04 01:32:08;;;;;;;18.20;6.00;;;;;;;11.73;100.00;101833.72;5056339;28;20084;-66
2022/07/04 01:34:34;;;;;;;18.13;6.15;;;;;;;11.65;100.00;101836.25;5056718;28;20033;-65
2022/07/04 01:37:00;;;;;;;17.02;5.78;;;;;;;11.62;100.00;101827.34;5052400;28;20028;-64
2022/07/04 01:39:29;;;;;;;18.73;6.00;;;;;;;11.67;100.00;101833.63;5055932;28;20039;-67
2022/07/04 01:41:55;;;;;;;18.85;6.28;;;;;;;11.65;100.00;101824.78;5056439;28;20950;-64
2022/07/04 01:44:21;;;;;;;18.98;6.40;;;;;;;11.66;100.00;101821.25;5055974;28;20107;-68
2022/07/04 01:46:46;;;;;;;18.83;5.65;;;;;;;11.66;100.00;101816.84;5055937;28;20033;-63
2022/07/04 01:49:11;;;;;;;17.00;5.88;;;;;;;11.67;100.00;101823.03;5056165;28;20071;-66
2022/07/04 01:51:44;;;;;;;16.35;5.60;;;;;;;11.59;100.00;101811.41;5055756;28;20040;-67
2022/07/04 01:54:10;;;;;;;16.75;5.75;;;;;;;11.48;100.00;101817.44;5055740;28;20041;-63
2022/07/04 01:56:35;;;;;;;15.82;5.57;;;;;;;11.36;100.00;101817.25;5055829;28;20550;-66
2022/07/04 01:59:01;;;;;;;17.00;5.75;;;;;;;11.32;100.00;101815.41;5055666;28;20029;-65
2022/07/04 02:01:29;;;;;;;17.17;6.00;;;;;;;11.33;100.00;101811.91;5055556;28;20544;-66
2022/07/04 02:03:56;;;;;;;16.80;5.60;;;;;;;11.21;100.00;101807.28;5056078;28;20505;-63
2022/07/04 02:06:22;;;;;;;18.00;6.13;;;;;;;11.19;100.00;101809.03;5055639;28;20048;-66
2022/07/04 02:13:00;;;;;;;15.63;5.40;;;;;;;11.29;100.00;101800.38;5051717;28;20040;-66
2022/07/04 02:14:16;;;;;;;15.38;5.22;;;;;;;11.35;100.00;101802.22;5055504;28;20037;-67
2022/07/04 02:16:41;;;;;;;17.75;5.85;;;;;;;11.32;100.00;101802.19;5055847;28;20041;-67
2022/07/04 02:19:06;;;;;;;17.77;5.63;;;;;;;11.31;100.00;101805.69;5055267;28;20028;-66
2022/07/04 02:21:32;;;;;;;19.25;5.68;;;;;;;11.29;100.00;101808.31;5055171;28;20032;-67
2022/07/04 02:23:57;;;;;;;17.33;5.90;;;;;;;11.18;100.00;101804.59;5055277;28;20029;-63
2022/07/04 02:26:22;;;;;;;17.20;5.50;;;;;;;11.12;100.00;101808.00;5055483;28;20032;-67
2022/07/04 02:28:48;;;;;;;17.58;5.60;;;;;;;10.96;100.00;101812.13;5055246;28;20031;-64
2022/07/04 02:31:13;;;;;;;15.88;5.45;;;;;;;10.90;100.00;101812.03;5055301;28;20036;-63
2022/07/04 02:33:38;;;;;;;16.90;5.50;;;;;;;10.85;100.00;101819.00;5054003;28;20096;-63
2022/07/04 02:36:04;;;;;;;16.52;5.55;;;;;;;10.80;100.00;101816.28;5063806;28;20049;-64
2022/07/04 02:38:29;;;;;;;17.30;5.63;;;;;;;10.75;100.00;101817.94;5065559;28;20068;-63
2022/07/04 02:40:55;;;;;;;15.13;5.03;;;;;;;10.67;100.00;101829.22;5065793;28;20025;-63
2022/07/04 02:43:20;;;;;;;17.15;5.90;;;;;;;10.69;100.00;101825.75;5063253;28;20028;-68
2022/07/04 02:45:45;;;;;;;17.92;5.97;;;;;;;10.67;100.00;101821.28;5055407;28;20025;-68
2022/07/04 02:48:11;;;;;;;19.23;6.25;;;;;;;10.70;100.00;101822.22;5055375;28;20047;-66
2022/07/04 02:50:36;;;;;;;16.27;5.65;;;;;;;10.71;100.00;101826.66;5054991;28;20071;-67
2022/07/04 02:53:01;;;;;;;17.88;6.05;;;;;;;10.83;100.00;101818.06;5054636;28;20080;-67
2022/07/04 02:55:27;;;;;;;16.30;5.35;;;;;;;10.89;100.00;101818.22;5054663;28;20025;-65
2022/07/04 02:57:53;;;;;;;17.08;5.50;;;;;;;10.83;100.00;101820.72;5055078;28;20020;-67
2022/07/04 03:00:18;;;;;;;17.25;5.70;;;;;;;10.71;100.00;101824.03;5054598;28;20028;-67
2022/07/04 03:02:44;;;;;;;16.92;5.40;;;;;;;10.69;100.00;101830.13;5054454;28;20032;-67
2022/07/04 03:05:09;;;;;;;14.85;5.10;;;;;;;10.65;100.00;101831.84;5054824;28;20108;-67
2022/07/04 03:07:34;;;;;;;17.23;5.75;;;;;;;10.68;100.00;101831.03;5054503;28;20021;-67
2022/07/04 03:10:00;;;;;;;18.00;5.70;;;;;;;10.66;100.00;101833.63;5054277;28;20490;-67
2022/07/04 03:12:25;;;;;;;16.77;5.63;;;;;;;10.59;100.00;101832.59;5054463;28;20071;-67
2022/07/04 03:14:53;;;;;;;16.55;5.50;;;;;;;10.62;100.00;101837.06;5054370;28;20056;-64
2022/07/04 03:17:18;;;;;;;16.67;5.50;;;;;;;10.61;100.00;101849.38;5054500;28;20025;-64
2022/07/04 03:19:43;;;;;;;16.63;5.38;;;;;;;10.64;100.00;101852.13;5054270;28;20468;-66
2022/07/04 03:22:09;;;;;;;17.95;5.43;;;;;;;10.67;100.00;101851.25;5054048;28;20029;-68
2022/07/04 03:24:34;;;;;;;17.13;5.78;;;;;;;10.64;100.00;101846.84;5054331;28;20025;-65
2022/07/04 03:26:59;;;;;;;16.60;5.32;;;;;;;10.60;100.00;101858.19;5053937;28;20021;-65
2022/07/04 03:29:25;;;;;;;17.10;5.70;;;;;;;10.60;100.00;101844.97;5054096;28;20028;-68
2022/07/04 03:31:51;;;;;;;19.05;6.72;;;;;;;10.63;100.00;101850.31;5054451;28;20013;-68
2022/07/04 03:34:16;;;;;;;20.27;7.05;;;;;;;10.66;100.00;101859.16;5053864;28;20025;-66
2022/07/04 03:36:41;;;;;;;20.27;7.00;;;;;;;10.75;100.00;101854.09;5053876;28;20087;-63
2022/07/04 03:39:07;;;;;;;20.42;7.15;;;;;;;10.76;100.00;101851.47;5053965;28;20033;-68
2022/07/04 03:41:32;;;;;;;19.25;6.80;;;;;;;10.78;100.00;101868.25;5053742;28;20035;-67
2022/07/04 03:43:57;;;;;;;20.55;6.78;;;;;;;10.83;100.00;101863.03;5053185;28;20036;-65
2022/07/04 03:46:23;;;;;;;19.30;6.82;;;;;;;10.85;100.00;101865.72;5053892;28;20471;-63
2022/07/04 03:48:49;;;;;;;18.30;6.88;;;;;;;10.84;100.00;101874.53;5053700;28;20087;-63
2022/07/04 03:51:14;;;;;;;19.15;6.88;;;;;;;10.87;100.00;101882.53;5053611;28;20016;-64
2022/07/04 03:53:40;;;;;;;20.85;7.38;;;;;;;10.87;100.00;101883.41;5053607;28;20052;-63
2022/07/04 03:56:05;;;;;;;20.83;7.50;;;;;;;10.92;100.00;101887.03;5053869;28;20106;-62
2022/07/04 03:58:30;;;;;;;19.80;7.05;;;;;;;10.94;100.00;101884.44;5053489;28;20079;-63
2022/07/04 04:00:57;;;;;;;19.33;7.38;;;;;;;10.95;100.00;101879.16;5053368;28;20029;-63
2022/07/04 04:06:06;;;;;;;19.98;7.85;;;;;;;11.03;100.00;101889.00;5050250;28;20040;-63
2022/07/04 04:08:32;;;;;;;20.00;7.75;;;;;;;11.09;100.00;101892.63;5053427;28;20017;-63
2022/07/04 04:10:57;;;;;;;20.55;7.97;;;;;;;11.13;100.00;101883.91;5053348;28;20033;-63
2022/07/04 04:13:22;;;;;;;20.75;7.97;;;;;;;11.19;100.00;101875.19;5053540;28;20172;-63
2022/07/04 04:15:48;;;;;;;21.02;8.55;;;;;;;11.25;100.00;101874.41;5053715;28;20479;-63
2022/07/04 04:18:13;;;;;;;21.08;8.30;;;;;;;11.31;100.00;101878.06;5053388;28;20097;-63
2022/07/04 04:20:38;;;;;;;21.58;8.18;;;;;;;11.38;100.00;101883.47;5053301;28;20116;-63
2022/07/04 04:23:04;;;;;;;20.70;8.15;;;;;;;11.43;100.00;101884.41;5053501;28;20522;-63
2022/07/04 04:25:29;;;;;;;22.92;8.10;;;;;;;11.51;100.00;101896.03;5053211;28;20024;-64
2022/07/04 04:27:54;;;;;;;20.65;8.15;;;;;;;11.56;100.00;101890.81;5052834;28;20074;-64
2022/07/04 04:30:20;;;;;;;20.52;7.90;;;;;;;11.60;100.00;101906.78;5052990;28;20047;-63
2022/07/04 04:32:45;;;;;;;22.35;8.18;;;;;;;11.63;100.00;101900.66;5052767;28;20025;-63
2022/07/04 04:35:10;;;;;;;21.83;8.73;;;;;;;11.71;100.00;101908.72;5052918;28;20021;-63
2022/07/04 04:37:36;;;;;;;21.13;7.95;;;;;;;11.80;100.00;101903.59;5052826;28;20029;-63
2022/07/04 04:40:01;;;;;;;20.60;7.95;;;;;;;11.89;100.00;101909.03;5052654;28;20108;-63
2022/07/04 04:42:26;;;;;;;19.90;8.05;;;;;;;11.92;100.00;101914.38;5052839;28;20054;-63
2022/07/04 04:44:52;;;;;;;20.90;7.63;;;;;;;12.00;100.00;101906.59;5053198;28;20021;-62
2022/07/04 04:47:17;;;;;;;22.15;7.50;;;;;;;12.05;100.00;101904.88;5052717;28;20532;-63
2022/07/04 04:49:42;;;;;;;18.67;6.80;;;;;;;12.14;100.00;101905.00;5053057;28;20164;-63
2022/07/04 04:52:09;;;;;;;20.45;7.07;;;;;;;12.21;100.00;101903.34;5052910;28;20029;-64
2022/07/04 04:54:34;;;;;;;20.77;7.10;;;;;;;12.25;100.00;101894.59;5052207;28;20045;-63
2022/07/04 04:57:00;;;;;;;19.60;7.40;;;;;;;12.29;100.00;101890.19;5052137;28;20025;-63
2022/07/04 04:59:27;;;;;;;20.65;6.80;;;;;;;12.35;100.00;101896.50;5052316;28;20029;-63
2022/07/04 05:01:52;;;;;;;20.02;6.53;;;;;;;12.45;100.00;101894.88;5052577;28;20021;-63
2022/07/04 05:04:18;;;;;;;19.35;7.05;;;;;;;12.50;100.00;101887.84;5052740;28;20036;-63
2022/07/04 05:06:43;;;;;;;19.27;7.25;;;;;;;12.54;100.00;101897.63;5052445;28;20403;-63
2022/07/04 05:09:09;;;;;;;19.75;7.25;;;;;;;12.58;100.00;101889.69;5052643;28;20459;-63
2022/07/04 05:11:34;;;;;;;22.55;7.00;;;;;;;12.60;100.00;101887.97;5052625;28;20021;-63
2022/07/04 05:13:59;;;;;;;20.35;7.10;;;;;;;12.62;100.00;101880.91;5052183;28;20505;-63
2022/07/04 05:16:25;;;;;;;20.20;7.40;;;;;;;12.66;100.00;101893.34;5052502;28;20095;-63
2022/07/04 05:18:50;;;;;;;20.05;7.10;;;;;;;12.69;100.00;101888.06;5052209;28;20040;-64
2022/07/04 05:21:15;;;;;;;20.58;7.80;;;;;;;12.70;100.00;101888.09;5052254;28;20035;-63
2022/07/04 05:23:41;;;;;;;20.77;7.28;;;;;;;12.78;100.00;101882.88;5052292;28;20013;-63
2022/07/04 05:26:06;;;;;;;20.33;7.18;;;;;;;12.81;100.00;101882.91;5052156;28;20059;-64
2022/07/04 05:28:31;;;;;;;19.90;7.43;;;;;;;12.88;100.00;101892.72;5052536;28;20028;-64
2022/07/04 05:30:57;;;;;;;19.83;7.00;;;;;;;12.95;100.00;101890.16;5052260;28;20479;-63
2022/07/04 05:33:22;;;;;;;20.98;7.07;;;;;;;13.02;100.00;101892.00;5052049;28;20029;-64
2022/07/04 05:35:47;;;;;;;19.63;6.95;;;;;;;13.06;100.00;101897.34;5052072;28;20032;-65
2022/07/04 05:38:13;;;;;;;20.10;6.68;;;;;;;13.12;100.00;101898.28;5052272;28;20064;-64
2022/07/04 05:40:38;;;;;;;19.70;7.28;;;;;;;13.21;100.00;101898.41;5051118;28;20479;-65
2022/07/04 05:43:03;;;;;;;19.38;6.60;;;;;;;13.29;100.00;101906.44;5050953;28;20033;-63
2022/07/04 05:45:29;;;;;;;20.13;6.78;;;;;;;13.37;100.00;101904.78;5047234;28;20021;-69
2022/07/04 05:47:54;;;;;;;21.88;7.20;;;;;;;13.45;100.00;101907.50;5049466;28;20554;-69
2022/07/04 05:50:19;;;;;;;20.92;7.20;;;;;;;13.50;100.00;101904.03;5050600;28;20057;-66
2022/07/04 05:52:45;;;;;;;21.27;7.32;;;;;;;13.55;100.00;101904.94;5050397;28;20025;-66
2022/07/04 05:55:10;;;;;;;21.13;7.43;;;;;;;13.59;100.00;101906.75;5048836;28;20021;-69
2022/07/04 05:57:35;;;;;;;19.63;7.03;;;;;;;13.67;100.00;101908.56;5050344;28;20033;-67
2022/07/04 06:00:03;;;;;;;20.90;7.13;;;;;;;13.72;100.00;101912.19;5049605;28;20483;-67
2022/07/04 06:02:29;;;;;;;20.25;6.90;;;;;;;13.80;100.00;101915.75;5050068;28;20037;-68
2022/07/04 06:04:55;;;;;;;20.77;7.75;;;;;;;13.86;100.00;101918.50;5050679;28;20472;-69
2022/07/04 06:07:20;;;;;;;20.83;7.30;;;;;;;13.99;100.00;101918.56;5052297;28;20092;-70
2022/07/04 06:09:46;;;;;;;20.83;7.65;;;;;;;14.02;100.00;101926.56;5053403;28;20036;-69
2022/07/04 06:12:11;;;;;;;20.08;7.25;;;;;;;14.11;100.00;101916.91;5054408;28;20027;-68
2022/07/04 06:14:37;;;;;;;19.73;7.30;;;;;;;14.18;100.00;101914.28;5053712;28;20120;-71
2022/07/04 06:17:02;;;;;;;20.88;7.70;;;;;;;14.31;100.00;101913.47;5053557;28;20021;-70
2022/07/04 06:19:28;;;;;;;20.08;7.60;;;;;;;14.46;100.00;101912.69;5053151;28;20072;-68
2022/07/04 06:21:53;;;;;;;20.58;7.70;;;;;;;14.61;100.00;101910.09;5053207;28;20033;-71
2022/07/04 06:24:18;;;;;;;20.17;7.28;;;;;;;14.73;100.00;101916.38;5053048;28;20064;-69
2022/07/04 06:26:44;;;;;;;20.00;7.50;;;;;;;14.80;100.00;101920.84;5053445;28;20033;-68
2022/07/04 06:29:09;;;;;;;20.60;7.32;;;;;;;14.76;100.00;101911.06;5051948;28;20024;-68
2022/07/04 06:31:35;;;;;;;20.67;7.80;;;;;;;14.78;100.00;101914.59;5053085;28;20021;-70
2022/07/04 06:36:44;;;;;;;20.10;7.32;;;;;;;14.83;100.00;101912.84;5052480;28;20471;-73
2022/07/04 06:39:09;;;;;;;19.77;7.28;;;;;;;14.88;100.00;101904.88;5052812;28;20033;-69
2022/07/04 06:41:35;;;;;;;18.50;6.47;;;;;;;14.95;100.00;101918.22;5053396;28;20035;-70
2022/07/04 06:44:00;;;;;;;18.88;6.50;;;;;;;15.09;100.00;101920.06;5053826;28;20112;-70
2022/07/04 06:46:25;;;;;;;19.20;6.95;;;;;;;15.28;100.00;101932.50;5053953;28;20029;-69
2022/07/04 06:48:51;;;;;;;19.70;6.70;;;;;;;15.48;100.00;101921.00;5056916;28;20025;-64
2022/07/04 06:51:16;;;;;;;19.70;6.38;;;;;;;15.62;100.00;101916.56;5058824;28;20036;-65
2022/07/04 06:53:42;;;;;;;19.05;6.28;;;;;;;15.76;100.00;101924.56;5063540;28;20503;-65
2022/07/04 06:56:07;;;;;;;20.08;6.20;;;;;;;15.94;100.00;101928.16;5064388;28;20049;-66
2022/07/04 06:58:33;;;;;;;18.90;6.05;;;;;;;16.15;100.00;101920.13;5062054;28;20289;-65
2022/07/04 07:00:58;;;;;;;17.52;5.70;;;;;;;16.25;100.00;101920.09;5058180;28;20033;-65
2022/07/04 07:03:24;;;;;;;17.42;5.55;;;;;;;16.25;100.00;101907.66;5060200;28;20033;-63
2022/07/04 07:05:49;;;;;;;17.15;4.88;;;;;;;16.23;100.00;101909.44;5061277;28;20043;-65
2022/07/04 07:08:14;;;;;;;17.40;5.07;;;;;;;16.23;100.00;101893.44;5061221;28;20029;-64
2022/07/04 07:10:40;;;;;;;16.83;4.90;;;;;;;16.37;100.00;101891.59;5059141;28;20470;-65
2022/07/04 07:13:05;;;;;;;15.98;4.75;;;;;;;16.54;100.00;101898.66;5053331;28;20092;-64
2022/07/04 07:15:31;;;;;;;15.57;4.65;;;;;;;16.70;100.00;101905.72;5049810;28;20052;-64
2022/07/04 07:17:57;;;;;;;18.67;4.22;;;;;;;16.80;100.00;101909.22;5051909;28;20029;-64
2022/07/04 07:20:22;;;;;;;11.38;3.85;;;;;;;16.73;100.00;101897.72;5052212;28;20029;-63
2022/07/04 07:22:47;;;;;;;14.40;4.00;;;;;;;16.88;100.00;101906.56;5052482;28;20031;-64
2022/07/04 07:25:13;;;;;;;13.30;3.85;;;;;;;16.92;100.00;101908.34;5052186;28;20833;-64
2022/07/04 07:27:40;;;;;;;16.05;3.80;;;;;;;16.87;100.00;101918.09;5052235;28;20021;-65
2022/07/04 07:30:07;;;;;;;15.57;3.97;;;;;;;16.83;100.00;101916.34;5052290;28;20045;-64
2022/07/04 07:32:32;;;;;;;14.95;3.70;;;;;;;16.86;100.00;101921.66;5052087;28;20025;-66
2022/07/04 07:34:58;;;;;;;14.48;3.70;;;;;;;16.86;100.00;101927.91;5052015;28;20029;-64
2022/07/04 07:37:23;;;;;;;13.65;3.38;;;;;;;16.81;100.00;101929.69;5052268;28;20036;-65
2022/07/04 07:39:49;;;;;;;14.32;3.60;;;;;;;16.80;100.00;101932.38;5050847;28;20438;-64
2022/07/04 07:42:15;;;;;;;13.18;3.60;;;;;;;16.89;100.00;101929.69;5051909;28;20059;-63
2022/07/04 07:44:41;;;;;;;13.98;3.60;;;;;;;16.93;100.00;101926.13;5052414;28;20021;-64
2022/07/04 07:47:07;;;;;;;13.02;3.33;;;;;;;17.00;100.00;101921.63;5051911;28;20044;-63
2022/07/04 07:49:32;;;;;;;12.60;3.50;;;;;;;17.03;100.00;101914.47;5052411;28;20039;-64
2022/07/04 07:51:57;;;;;;;13.30;3.40;;;;;;;17.03;100.00;101913.59;5057369;28;20101;-63
2022/07/04 07:54:23;;;;;;;13.40;3.40;;;;;;;17.13;100.00;101909.09;5057655;28;20537;-64
2022/07/04 07:56:48;;;;;;;12.00;3.30;;;;;;;17.23;100.00;101905.47;5058572;28;20617;-63
2022/07/04 07:59:13;;;;;;;12.93;3.20;;;;;;;17.26;100.00;101900.13;5051554;28;20037;-64
2022/07/04 08:01:39;;;;;;;12.40;3.22;;;;;;;17.27;100.00;101895.63;5051887;28;20055;-63
2022/07/04 08:06:49;;;;;;;10.73;3.25;;;;;;;17.57;100.00;101889.19;5050266;28;20048;-63
2022/07/04 08:09:14;;;;;;;10.02;3.10;;;;;;;17.71;100.00;101897.97;5053392;28;20033;-63
2022/07/04 08:11:41;;;;;;;13.75;3.10;;;;;;;17.82;100.00;101905.00;5053372;28;20044;-63
2022/07/04 08:14:07;;;;;;;11.48;3.10;;;;;;;17.93;100.00;101897.81;5053417;28;20040;-63
2022/07/04 08:16:33;;;;;;;11.15;2.90;;;;;;;18.09;100.00;101893.22;5053159;28;20025;-63
2022/07/04 08:18:59;;;;;;;12.93;3.60;;;;;;;18.06;100.00;101895.91;5053144;28;20029;-63
2022/07/04 08:21:24;;;;;;;14.40;3.15;;;;;;;18.12;100.00;101901.19;5053490;28;20028;-63
2022/07/04 08:23:49;;;;;;;15.35;3.42;;;;;;;18.24;100.00;101902.84;5053258;28;20033;-63
2022/07/04 08:26:15;;;;;;;12.10;3.50;;;;;;;18.39;100.00;101920.53;5053135;28;20108;-63
2022/07/04 08:28:40;;;;;;;12.85;3.40;;;;;;;18.30;99.36;101916.16;5054530;28;20049;-63
2022/07/04 08:31:05;;;;;;;16.88;3.78;;;;;;;18.46;100.00;101916.88;5054183;28;20104;-63
2022/07/04 08:33:31;;;;;;;13.85;3.30;;;;;;;18.56;100.00;101914.97;5055693;28;20107;-63
2022/07/04 08:35:58;;;;;;;13.13;3.47;;;;;;;18.58;100.00;101914.06;5054101;28;20041;-63
2022/07/04 08:38:23;;;;;;;15.20;3.60;;;;;;;18.63;100.00;101914.88;5052637;28;20606;-63
2022/07/04 08:40:51;;;;;;;10.10;3.03;;;;;;;18.56;100.00;101914.97;5052948;28;20104;-63
2022/07/04 08:43:20;;;;;;;10.38;2.80;;;;;;;18.64;100.00;101923.81;5052576;28;20029;-63
2022/07/04 08:45:47;;;;;;;10.80;2.70;;;;;;;18.74;96.86;101930.84;5052606;28;20437;-63
2022/07/04 08:48:13;;;;;;;12.50;2.80;;;;;;;18.85;99.18;101914.59;5052689;28;20070;-64
2022/07/04 08:50:41;;;;;;;11.90;2.92;;;;;;;18.95;97.03;101921.66;5053000;28;20110;-63
2022/07/04 08:53:11;;;;;;;8.68;2.70;;;;;;;18.95;96.70;101916.28;5052605;28;20407;-63
2022/07/04 08:58:29;;;;;;;10.52;3.20;;;;;;;19.15;95.76;101921.38;5050766;28;20198;-63
2022/07/04 09:00:59;;;;;;;14.73;3.40;;;;;;;19.39;96.83;101927.28;5052867;28;20044;-63
2022/07/04 09:03:26;;;;;;;14.68;3.28;;;;;;;19.46;93.55;101926.25;5052495;28;20028;-63
2022/07/04 09:05:53;;;;;;;11.93;3.10;;;;;;;19.61;95.84;101924.25;5052419;28;20447;-63
2022/07/04 09:08:19;;;;;;;11.55;3.20;;;;;;;19.62;90.92;101909.94;5052551;28;20114;-64
2022/07/04 09:10:44;;;;;;;12.65;3.13;;;;;;;19.64;92.54;101924.19;5052292;28;20056;-63
2022/07/04 09:13:11;;;;;;;9.88;3.08;;;;;;;19.60;91.37;101926.06;5051693;28;20025;-63
2022/07/04 09:15:37;;;;;;;12.10;3.10;;;;;;;19.77;92.74;101919.53;5052697;28;20425;-63
2022/07/04 09:18:03;;;;;;;12.55;3.22;;;;;;;19.89;91.01;101918.44;5052253;28;20505;-64
2022/07/04 09:20:31;;;;;;;13.45;3.45;;;;;;;20.16;92.09;101912.56;5052352;28;20414;-64
2022/07/04 09:22:57;;;;;;;12.38;2.90;;;;;;;20.28;88.48;101907.91;5052609;28;20056;-63
2022/07/04 09:25:24;;;;;;;10.75;2.75;;;;;;;20.60;91.59;101909.06;5052251;28;20036;-63
2022/07/04 09:27:55;;;;;;;11.27;2.80;;;;;;;20.71;88.12;101925.88;5052209;28;20024;-63
2022/07/04 09:30:25;;;;;;;12.73;2.88;;;;;;;20.71;83.31;101928.56;5052130;28;20025;-64
2022/07/04 09:32:59;;;;;;;14.60;2.92;;;;;;;20.77;86.38;101925.72;5052593;28;20447;-63
2022/07/04 09:35:25;;;;;;;14.30;3.40;;;;;;;20.96;87.63;101917.28;5050918;28;20025;-65
2022/07/04 09:37:53;;;;;;;13.50;3.00;;;;;;;21.10;84.10;101912.47;5051069;28;20090;-65
2022/07/04 09:40:21;;;;;;;12.07;3.03;;;;;;;21.22;83.94;101914.00;5052438;28;20025;-64
2022/07/04 09:42:46;;;;;;;13.30;3.10;;;;;;;21.29;82.85;101918.31;5054441;28;20029;-64
2022/07/04 09:45:12;;;;;;;12.13;3.10;;;;;;;21.56;83.92;101911.41;5055598;28;20082;-64
2022/07/04 09:47:40;;;;;;;10.32;3.00;;;;;;;21.63;77.21;101916.66;5055652;28;20095;-64
2022/07/04 09:50:06;;;;;;;8.70;2.80;;;;;;;21.46;80.75;101912.50;5056121;28;20029;-64
2022/07/04 09:52:43;;;;;;;10.32;3.25;;;;;;;21.40;77.00;101916.22;5056034;28;20356;-67
2022/07/04 09:55:08;;;;;;;12.70;3.10;;;;;;;21.49;78.55;101914.25;5052729;28;20041;-64
2022/07/04 09:57:33;;;;;;;10.25;2.92;;;;;;;21.80;78.85;101914.41;5055845;28;20075;-65
2022/07/04 10:00:20;;;;;;;11.45;3.05;;;;;;;21.52;78.56;101907.03;5055627;28;20029;-65
2022/07/04 10:02:45;;;;;;;12.30;3.10;;;;;;;21.74;78.50;101919.91;5053521;28;20017;-66
2022/07/04 10:05:11;;;;;;;12.48;3.20;;;;;;;21.69;75.91;101913.78;5056092;28;20189;-64
2022/07/04 10:07:43;;;;;;;9.90;3.00;;;;;;;21.90;79.47;101915.94;5056033;28;20021;-64
2022/07/04 10:10:23;;;;;;;;;;;;;;;22.37;76.21;101915.59;5055828;28;20501;-66
2022/07/04 10:12:50;;;;;;;12.85;3.15;;;;;;;24.01;70.44;101914.09;5055485;28;19908;-64
2022/07/04 10:15:16;;;;;;;13.43;3.20;;;;;;;25.14;61.71;101907.16;5055967;28;20432;-65
2022/07/04 10:17:41;;;;;;;12.50;3.40;;;;;;;26.24;53.52;101908.00;5055464;28;20487;-63
2022/07/04 10:20:08;;;;;;;11.13;2.92;;;;;;;27.09;51.66;101904.97;5055163;28;20029;-65
2022/07/04 10:22:35;;;;;;;10.50;2.72;;;;;;;27.70;49.43;101902.91;5053057;28;20036;-65
2022/07/04 10:25:01;;;;;;;14.18;2.90;;;;;;;28.46;39.61;101901.66;5053552;28;20071;-64
2022/07/04 10:27:26;;;;;;;11.45;2.80;;;;;;;28.40;40.38;101896.53;5053644;28;20053;-65
2022/07/04 10:29:53;;;;;;;12.23;2.80;;;;;;;28.36;38.84;101901.28;5053814;28;20090;-66
2022/07/04 10:32:20;;;;;;;13.65;2.95;;;;;;;28.55;37.58;101897.56;5053188;28;20052;-68
2022/07/04 10:34:45;;;;;;;13.57;3.05;;;;;;;28.57;36.16;101904.66;5052833;28;20032;-66
2022/07/04 10:37:10;;;;;;;9.77;2.72;;;;;;;28.04;38.26;101889.41;5053446;28;20032;-66
2022/07/04 10:39:36;;;;;;;10.15;2.75;;;;;;;27.37;37.79;101889.19;5053142;28;20036;-66
2022/07/04 10:42:02;;;;;;;10.35;2.70;;;;;;;27.05;38.27;101884.38;5053240;28;20042;-65
2022/07/04 10:44:36;;;;;;;11.88;2.90;;;;;;;27.39;38.05;101890.88;5052469;28;20160;-66
2022/07/04 10:47:01;;;;;;;11.80;2.90;;;;;;;27.37;38.66;101881.91;5051099;28;20025;-66
2022/07/04 10:49:28;;;;;;;10.60;2.85;;;;;;;27.77;39.34;101877.19;5053408;28;20479;-65
2022/07/04 10:52:13;;;;;;;11.05;2.78;;;;;;;28.82;37.05;101882.44;5053366;28;20111;-65
2022/07/04 10:54:41;;;;;;;7.93;2.60;;;;;;;29.31;34.87;101881.47;5051466;28;20044;-65
2022/07/04 10:57:24;;;;;;;10.18;2.90;;;;;;;30.20;34.61;101867.06;5052680;28;20029;-66
2022/07/04 10:59:52;;;;;;;12.45;3.08;;;;;;;30.46;32.02;101874.59;5052160;28;20074;-66
2022/07/04 11:02:17;;;;;;;10.77;3.00;;;;;;;28.74;34.37;101878.41;5052858;28;20029;-66
2022/07/04 11:05:06;;;;;;;10.40;3.00;;;;;;;27.93;38.87;101865.50;5051297;28;20029;-65
2022/07/04 11:07:37;;;;;;;16.58;3.20;;;;;;;25.81;41.36;101872.84;5053206;28;20033;-65
2022/07/04 11:10:33;;;;;;;15.67;3.67;;;;;;;24.81;43.79;101875.09;5052901;28;20031;-69
2022/07/04 11:12:56;;;;;;;12.88;3.28;;;;;;;24.59;45.46;101864.25;5051460;28;20274;-69
2022/07/04 11:15:25;;;;;;;12.30;3.40;;;;;;;24.35;46.37;101866.94;5052273;28;20021;-70
2022/07/04 11:17:54;;;;;;;14.15;3.47;;;;;;;23.81;45.94;101871.56;5052804;28;20286;-69
2022/07/04 11:20:20;;;;;;;11.60;2.90;;;;;;;23.51;44.62;101860.00;5050695;28;20098;-68
2022/07/04 11:22:45;;;;;;;9.13;2.95;;;;;;;23.35;46.29;101865.03;5052112;28;20032;-68